createdAt,value
2023-05-05T00:01:08.627Z,61.23
2023-05-05T00:06:01.915Z,60.84
2023-05-05T00:10:54.842Z,60.61
2023-05-05T00:15:53.662Z,61.42
2023-05-05T00:20:47.890Z,61.24
2023-05-05T00:25:41.549Z,61.30
2023-05-05T00:30:35.246Z,61.13
2023-05-05T00:35:27.456Z,61.04
2023-05-05T00:40:19.748Z,60.59
2023-05-05T00:45:16.207Z,60.28
2023-05-05T00:50:10.457Z,60.58
2023-05-05T00:55:04.549Z,60.63
2023-05-05T01:00:00.339Z,60.82
2023-05-05T01:04:55.760Z,60.55
2023-05-05T01:10:20.221Z,61.17
2023-05-05T01:15:28.072Z,60.74
2023-05-05T01:20:41.281Z,60.53
2023-05-05T01:26:03.068Z,60.75
2023-05-05T01:31:53.658Z,60.82
2023-05-05T01:37:10.118Z,64.33
2023-05-05T01:42:24.966Z,63.97
2023-05-05T01:47:21.875Z,64.64
2023-05-05T01:52:34.379Z,64.42
2023-05-05T01:57:30.036Z,63.99
2023-05-05T02:02:42.923Z,64.01
2023-05-05T02:07:58.549Z,63.79
2023-05-05T02:12:53.265Z,63.97
2023-05-05T02:17:48.471Z,64.40
2023-05-05T02:22:42.065Z,64.62
2023-05-05T02:27:38.635Z,64.39
2023-05-05T02:32:53.675Z,64.10
2023-05-05T02:37:56.719Z,63.04
2023-05-05T02:42:51.891Z,61.15
2023-05-05T02:47:47.083Z,60.91
2023-05-05T02:52:40.894Z,61.19
2023-05-05T02:57:35.564Z,60.70
2023-05-05T03:02:42.393Z,60.67
2023-05-05T03:07:43.008Z,61.19
2023-05-05T03:12:55.310Z,60.89
2023-05-05T03:17:58.850Z,60.92
2023-05-05T03:22:53.184Z,61.17
2023-05-05T03:27:45.751Z,60.89
2023-05-05T03:32:42.251Z,60.75
2023-05-05T03:37:35.622Z,60.78
2023-05-05T03:42:29.207Z,60.71
2023-05-05T03:47:24.729Z,60.86
2023-05-05T03:52:20.736Z,60.58
2023-05-05T03:57:13.749Z,61.00
2023-05-05T04:02:07.444Z,60.43
2023-05-05T04:06:59.781Z,60.59
2023-05-05T04:11:52.933Z,60.52
2023-05-05T04:16:47.780Z,60.56
2023-05-05T04:21:41.315Z,60.56
2023-05-05T04:26:34.700Z,60.26
2023-05-05T04:31:28.060Z,60.27
2023-05-05T04:36:20.428Z,60.15
2023-05-05T04:41:14.284Z,60.01
2023-05-05T04:46:09.044Z,59.98
2023-05-05T04:51:06.810Z,59.89
2023-05-05T04:56:03.309Z,59.94
2023-05-05T05:00:56.821Z,59.72
2023-05-05T05:05:49.928Z,59.78
2023-05-05T05:10:44.144Z,60.07
2023-05-05T05:15:39.644Z,59.70
2023-05-05T05:20:33.438Z,59.32
2023-05-05T05:25:27.612Z,59.96
2023-05-05T05:30:21.642Z,59.71
2023-05-05T05:35:15.529Z,59.54
2023-05-05T05:40:11.092Z,60.75
2023-05-05T05:45:06.212Z,58.53
2023-05-05T05:49:59.358Z,56.69
2023-05-05T05:54:57.187Z,56.65
2023-05-05T05:59:51.124Z,56.00
2023-05-05T06:04:44.556Z,55.91
2023-05-05T06:09:38.608Z,55.55
2023-05-05T06:14:31.124Z,55.80
2023-05-05T06:19:24.488Z,54.51
2023-05-05T06:24:18.982Z,55.60
2023-05-05T06:29:12.565Z,53.54
2023-05-05T06:34:05.165Z,55.74
2023-05-05T06:38:57.379Z,56.04
2023-05-05T06:43:52.393Z,56.60
2023-05-05T06:48:46.254Z,57.55
2023-05-05T06:53:39.872Z,57.96
2023-05-05T06:58:32.891Z,58.20
2023-05-05T07:03:27.477Z,58.06
2023-05-05T07:08:20.145Z,58.20
2023-05-05T07:13:13.988Z,58.05
2023-05-05T07:18:07.144Z,53.87
2023-05-05T07:23:00.814Z,54.41
2023-05-05T07:27:54.652Z,54.20
2023-05-05T07:32:47.773Z,53.34
2023-05-05T07:37:41.861Z,54.12
2023-05-05T07:42:34.761Z,54.71
2023-05-05T07:47:27.982Z,54.62
2023-05-05T07:52:30.047Z,54.97
2023-05-05T07:57:31.668Z,54.88
2023-05-05T08:02:24.496Z,54.85
2023-05-05T08:07:18.027Z,53.79
2023-05-05T08:12:12.811Z,54.59
2023-05-05T08:17:05.986Z,54.03
2023-05-05T08:22:01.216Z,54.53
2023-05-05T08:26:54.972Z,54.14
2023-05-05T08:31:48.498Z,54.09
2023-05-05T08:36:40.976Z,52.97
2023-05-05T08:41:33.791Z,53.92
2023-05-05T08:46:31.999Z,53.72
2023-05-05T08:51:32.057Z,53.36
2023-05-05T08:56:33.141Z,53.30
2023-05-05T09:01:34.231Z,52.75
2023-05-05T09:06:28.124Z,52.38
2023-05-05T09:11:22.698Z,53.02
2023-05-05T09:16:16.481Z,52.80
2023-05-05T09:21:26.476Z,52.88
2023-05-05T09:26:19.898Z,52.72
2023-05-05T09:31:16.067Z,51.63
2023-05-05T09:36:09.534Z,50.99
2023-05-05T09:41:02.765Z,50.67
2023-05-05T09:46:09.064Z,50.69
2023-05-05T09:51:02.658Z,50.68
2023-05-05T09:56:00.985Z,50.76
2023-05-05T10:00:54.506Z,49.81
2023-05-05T10:05:56.179Z,47.41
2023-05-05T10:10:57.969Z,48.63
2023-05-05T10:15:53.132Z,47.82
2023-05-05T10:20:46.090Z,46.16
2023-05-05T10:25:47.004Z,47.63
2023-05-05T10:30:46.582Z,47.04
2023-05-05T10:35:45.878Z,46.52
2023-05-05T10:40:49.151Z,46.09
2023-05-05T10:45:43.665Z,46.67
2023-05-05T10:50:42.905Z,46.77
2023-05-05T10:56:14.422Z,46.44
2023-05-05T11:01:08.730Z,46.62
2023-05-05T11:06:03.723Z,46.14
2023-05-05T11:10:57.253Z,46.37
2023-05-05T11:15:54.384Z,45.61
2023-05-05T11:20:59.836Z,46.36
2023-05-05T11:25:54.536Z,46.28
2023-05-05T11:30:59.938Z,46.51
2023-05-05T11:36:03.410Z,46.35
2023-05-05T11:41:06.207Z,47.05
2023-05-05T11:46:11.981Z,47.24
2023-05-05T11:51:10.171Z,47.86
2023-05-05T11:56:10.364Z,48.07
2023-05-05T12:01:27.267Z,47.62
2023-05-05T12:06:21.134Z,47.98
2023-05-05T12:11:14.260Z,48.03
2023-05-05T12:16:13.701Z,48.47
2023-05-05T12:21:17.801Z,48.48
2023-05-05T12:26:27.730Z,48.75
2023-05-05T12:31:21.320Z,48.50
2023-05-05T12:36:14.567Z,48.32
2023-05-05T12:41:07.835Z,48.16
2023-05-05T12:46:04.074Z,47.99
2023-05-05T12:51:17.828Z,48.60
2023-05-05T12:56:49.029Z,49.48
2023-05-05T13:01:50.915Z,48.78
2023-05-05T13:06:45.857Z,48.94
2023-05-05T13:11:40.400Z,49.20
2023-05-05T13:16:33.533Z,49.06
2023-05-05T13:21:26.729Z,48.91
2023-05-05T13:26:20.721Z,49.32
2023-05-05T13:31:13.482Z,48.73
2023-05-05T13:36:07.509Z,49.18
2023-05-05T13:41:01.143Z,49.17
2023-05-05T13:45:55.070Z,49.65
2023-05-05T13:50:50.909Z,49.65
2023-05-05T13:55:43.745Z,50.08
2023-05-05T14:00:38.336Z,50.60
2023-05-05T14:05:34.637Z,50.30
2023-05-05T14:10:30.292Z,50.62
2023-05-05T14:15:23.375Z,50.76
2023-05-05T14:20:16.450Z,51.36
2023-05-05T14:25:10.093Z,51.58
2023-05-05T14:30:04.084Z,51.38
2023-05-05T14:34:58.014Z,51.99
2023-05-05T14:39:51.582Z,51.91
2023-05-05T14:44:44.957Z,52.38
2023-05-05T14:49:40.001Z,52.42
2023-05-05T14:54:33.599Z,52.58
2023-05-05T14:59:28.436Z,52.65
2023-05-05T15:04:21.449Z,52.60
2023-05-05T15:09:16.087Z,52.39
2023-05-05T15:14:11.122Z,52.29
2023-05-05T15:19:04.652Z,52.46
2023-05-05T15:23:58.411Z,52.54
2023-05-05T15:28:53.292Z,52.30
2023-05-05T15:33:52.713Z,52.90
2023-05-05T15:38:45.699Z,52.85
2023-05-05T15:43:43.627Z,52.57
2023-05-05T15:48:36.441Z,52.95
2023-05-05T15:53:29.042Z,53.01
2023-05-05T15:58:22.964Z,52.82
2023-05-05T16:03:16.025Z,52.94
2023-05-05T16:08:11.300Z,52.62
2023-05-05T16:13:04.075Z,53.19
2023-05-05T16:17:56.775Z,53.23
2023-05-05T16:22:50.008Z,52.76
2023-05-05T16:27:43.180Z,53.15
2023-05-05T16:32:36.713Z,52.94
2023-05-05T16:37:30.596Z,53.20
2023-05-05T16:42:23.790Z,52.91
2023-05-05T16:47:16.669Z,52.85
2023-05-05T16:52:10.388Z,52.91
2023-05-05T16:57:03.781Z,53.21
2023-05-05T17:01:57.329Z,53.13
2023-05-05T17:06:51.197Z,53.18
2023-05-05T17:11:44.366Z,53.89
2023-05-05T17:16:38.151Z,54.38
2023-05-05T17:21:33.469Z,54.07
2023-05-05T17:26:26.573Z,54.04
2023-05-05T17:31:20.626Z,52.80
2023-05-05T17:36:13.659Z,53.25
2023-05-05T17:41:07.188Z,52.74
2023-05-05T17:46:01.750Z,52.79
2023-05-05T17:50:55.191Z,53.11
2023-05-05T17:55:48.657Z,52.84
2023-05-05T18:00:42.755Z,53.16
2023-05-05T18:05:35.986Z,53.03
2023-05-05T18:10:28.972Z,53.37
2023-05-05T18:15:22.565Z,53.58
2023-05-05T18:20:14.917Z,54.39
2023-05-05T18:25:10.712Z,53.93
2023-05-05T18:30:05.294Z,54.08
2023-05-05T18:34:59.904Z,54.07
2023-05-05T18:39:52.858Z,54.16
2023-05-05T18:44:45.015Z,54.69
2023-05-05T18:49:39.081Z,54.36
2023-05-05T18:54:32.473Z,54.45
2023-05-05T18:59:25.794Z,54.27
2023-05-05T19:04:30.122Z,54.73
2023-05-05T19:09:25.064Z,54.28
2023-05-05T19:14:18.601Z,54.19
2023-05-05T19:19:12.195Z,54.66
2023-05-05T19:24:06.636Z,54.49
2023-05-05T19:28:59.805Z,54.17
2023-05-05T19:33:52.779Z,54.25
2023-05-05T19:38:47.120Z,54.48
2023-05-05T19:43:40.283Z,54.55
2023-05-05T19:48:33.416Z,54.18
2023-05-05T19:53:25.749Z,54.52
2023-05-05T19:58:19.298Z,54.43
2023-05-05T20:03:11.914Z,54.40
2023-05-05T20:08:04.164Z,53.83
2023-05-05T20:12:57.413Z,54.18
2023-05-05T20:17:50.175Z,54.54
2023-05-05T20:22:43.465Z,54.20
2023-05-05T20:27:39.135Z,54.46
2023-05-05T20:32:33.058Z,54.73
2023-05-05T20:37:27.588Z,54.77
2023-05-05T20:42:20.856Z,55.25
2023-05-05T20:47:18.119Z,55.56
2023-05-05T20:52:11.756Z,55.15
2023-05-05T20:57:05.448Z,55.57
2023-05-05T21:01:59.444Z,55.22
2023-05-05T21:06:52.020Z,55.25
2023-05-05T21:11:44.589Z,55.45
2023-05-05T21:16:38.550Z,54.98
2023-05-05T21:21:32.272Z,55.79
2023-05-05T21:26:28.280Z,55.81
2023-05-05T21:31:22.380Z,55.50
2023-05-05T21:36:18.021Z,55.01
2023-05-05T21:41:10.525Z,55.22
2023-05-05T21:46:10.089Z,55.22
2023-05-05T21:51:02.742Z,55.05
2023-05-05T21:55:55.637Z,54.56
2023-05-05T22:00:51.691Z,54.48
2023-05-05T22:05:44.631Z,54.26
2023-05-05T22:10:38.065Z,54.66
2023-05-05T22:15:45.868Z,54.20
2023-05-05T22:20:40.739Z,54.51
2023-05-05T22:25:33.251Z,54.16
2023-05-05T22:30:26.465Z,54.25
2023-05-05T22:35:20.223Z,54.31
2023-05-05T22:40:13.861Z,54.77
2023-05-05T22:45:09.461Z,54.49
2023-05-05T22:50:02.959Z,54.43
2023-05-05T22:54:56.217Z,54.17
2023-05-05T22:59:49.245Z,54.74
2023-05-05T23:04:47.877Z,54.82
2023-05-05T23:09:41.502Z,54.36
2023-05-05T23:14:33.774Z,54.80
2023-05-05T23:19:29.431Z,54.30
2023-05-05T23:24:22.509Z,54.64
2023-05-05T23:29:16.125Z,54.56
2023-05-05T23:34:13.782Z,54.57
2023-05-05T23:39:06.965Z,54.59
2023-05-05T23:44:00.732Z,54.42
2023-05-05T23:48:55.012Z,54.17
2023-05-05T23:53:47.722Z,54.42
2023-05-05T23:58:40.728Z,54.10
